Terminal Aerodrome Forecast
Issued by NWS

Home | Current Version | Previous Version | Text Only | Print | Product List | Glossary On
Versions: 1 2 3 4 5 6 7 8 9 10 11 12 13 14 15
000
FTUS46 KSEW 291600 AAB
TAFBFI
TAF AMD
KBFI 291601Z 2916/3012 23005KT P6SM SCT012 BKN045
      TEMPO 2916/2918 BKN012 OVC040
     FM291800 23007KT P6SM SCT018 OVC040
      TEMPO 2918/2921 BKN018 OVC040
     FM292100 23008KT P6SM SCT025 BKN050
     FM300600 16006KT P6SM OVC025=

USA.gov is the U.S. government's official web portal to all federal, state and local government web resources and services.